createdAt,value
2023-01-10T00:00:09.636Z,2.47
2023-01-10T00:02:36.805Z,2.80
2023-01-10T00:05:04.040Z,2.65
2023-01-10T00:07:31.259Z,2.38
2023-01-10T00:09:58.359Z,2.13
2023-01-10T00:12:44.215Z,2.60
2023-01-10T00:15:11.487Z,2.08
2023-01-10T00:17:38.655Z,2.72
2023-01-10T00:20:05.976Z,2.10
2023-01-10T00:22:33.066Z,1.98
2023-01-10T00:25:00.150Z,1.85
2023-01-10T00:27:27.242Z,2.45
2023-01-10T00:29:54.650Z,2.00
2023-01-10T00:32:22.132Z,2.20
2023-01-10T00:34:49.218Z,1.58
2023-01-10T00:37:16.353Z,1.90
2023-01-10T00:39:43.501Z,1.85
2023-01-10T00:42:30.606Z,2.50
2023-01-10T00:44:57.851Z,2.55
2023-01-10T00:47:25.007Z,2.67
2023-01-10T00:49:52.239Z,2.90
2023-01-10T00:52:19.389Z,2.70
2023-01-10T00:54:46.503Z,2.75
2023-01-10T00:57:13.606Z,3.05
2023-01-10T00:59:40.689Z,3.28
2023-01-10T01:02:07.903Z,3.70
2023-01-10T01:04:35.202Z,3.22
2023-01-10T01:07:02.819Z,3.72
2023-01-10T01:09:30.657Z,4.18
2023-01-10T01:11:57.764Z,4.03
2023-01-10T01:14:25.615Z,4.18
2023-01-10T01:16:52.742Z,4.13
2023-01-10T01:19:19.853Z,4.40
2023-01-10T01:21:47.058Z,3.80
2023-01-10T01:24:14.227Z,3.70
2023-01-10T01:26:42.639Z,4.95
2023-01-10T01:29:09.889Z,4.25
2023-01-10T01:31:37.043Z,5.00
2023-01-10T01:34:04.188Z,5.85
2023-01-10T01:36:31.307Z,6.20
2023-01-10T01:38:58.519Z,5.60
2023-01-10T01:41:44.511Z,5.63
2023-01-10T01:44:16.100Z,5.80
2023-01-10T01:46:45.362Z,4.45
2023-01-10T01:49:18.502Z,5.70
2023-01-10T01:51:47.656Z,5.88
2023-01-10T01:54:15.029Z,5.82
2023-01-10T01:56:44.732Z,6.22
2023-01-10T01:59:17.845Z,5.90
2023-01-10T02:01:47.067Z,6.35
2023-01-10T02:04:15.880Z,6.13
2023-01-10T02:06:43.588Z,5.45
2023-01-10T02:09:28.690Z,5.40
2023-01-10T02:11:56.123Z,6.78
2023-01-10T02:14:25.555Z,6.50
2023-01-10T02:16:52.841Z,6.75
2023-01-10T02:19:28.924Z,7.28
2023-01-10T02:22:06.226Z,7.03
2023-01-10T02:24:33.298Z,5.97
2023-01-10T02:27:03.304Z,6.50
2023-01-10T02:29:50.633Z,6.80
2023-01-10T02:32:41.987Z,5.60
2023-01-10T02:35:12.773Z,5.25
2023-01-10T02:37:46.534Z,4.10
2023-01-10T02:40:19.653Z,5.55
2023-01-10T02:43:16.075Z,5.30
2023-01-10T02:45:46.967Z,5.90
2023-01-10T02:48:14.074Z,5.47
2023-01-10T02:50:44.491Z,3.20
2023-01-10T02:53:14.364Z,5.32
2023-01-10T02:56:02.987Z,3.80
2023-01-10T02:58:30.085Z,3.78
2023-01-10T03:01:18.607Z,3.67
2023-01-10T03:03:57.369Z,4.35
2023-01-10T03:06:30.398Z,3.28
2023-01-10T03:09:03.629Z,3.42
2023-01-10T03:11:40.718Z,3.63
2023-01-10T03:14:22.346Z,4.22
2023-01-10T03:16:58.639Z,3.95
2023-01-10T03:19:27.948Z,4.40
2023-01-10T03:21:57.363Z,3.47
2023-01-10T03:24:27.369Z,3.55
2023-01-10T03:27:19.155Z,3.60
2023-01-10T03:29:51.003Z,3.47
2023-01-10T03:32:20.288Z,3.83
2023-01-10T03:34:47.588Z,3.63
2023-01-10T03:37:18.933Z,4.10
2023-01-10T03:39:46.004Z,3.13
2023-01-10T03:42:19.619Z,3.58
2023-01-10T03:44:53.844Z,4.43
2023-01-10T03:47:28.116Z,4.40
2023-01-10T03:49:57.001Z,3.90
2023-01-10T03:52:24.604Z,4.57
2023-01-10T03:54:52.165Z,4.75
2023-01-10T03:57:20.927Z,3.55
2023-01-10T03:59:48.949Z,3.80
2023-01-10T04:02:16.030Z,4.32
2023-01-10T04:04:43.151Z,3.95
2023-01-10T04:07:10.416Z,3.78
2023-01-10T04:09:37.645Z,4.43
2023-01-10T04:12:04.859Z,3.60
2023-01-10T04:14:32.788Z,3.38
2023-01-10T04:16:59.979Z,4.25
2023-01-10T04:19:27.101Z,3.00
2023-01-10T04:21:54.186Z,4.40
2023-01-10T04:24:21.416Z,3.72
2023-01-10T04:26:48.622Z,4.05
2023-01-10T04:29:15.788Z,4.10
2023-01-10T04:31:43.064Z,3.95
2023-01-10T04:34:10.290Z,4.70
2023-01-10T04:36:37.480Z,4.60
2023-01-10T04:39:04.956Z,3.38
2023-01-10T04:41:32.339Z,4.18
2023-01-10T04:43:59.845Z,4.28
2023-01-10T04:46:27.086Z,3.92
2023-01-10T04:48:54.351Z,3.55
2023-01-10T04:51:21.461Z,4.15
2023-01-10T04:53:48.533Z,4.18
2023-01-10T04:56:20.229Z,6.28
2023-01-10T04:58:47.789Z,4.77
2023-01-10T05:01:16.598Z,5.60
2023-01-10T05:03:44.095Z,6.03
2023-01-10T05:06:11.223Z,5.53
2023-01-10T05:08:38.341Z,3.85
2023-01-10T05:11:05.576Z,5.95
2023-01-10T05:13:33.801Z,6.30
2023-01-10T05:16:01.093Z,7.07
2023-01-10T05:18:28.912Z,6.25
2023-01-10T05:21:03.001Z,4.85
2023-01-10T05:23:30.214Z,4.35
2023-01-10T05:25:57.374Z,7.78
2023-01-10T05:28:24.517Z,7.00
2023-01-10T05:30:51.689Z,4.57
2023-01-10T05:33:18.793Z,5.70
2023-01-10T05:35:45.922Z,6.25
2023-01-10T05:38:13.036Z,7.53
2023-01-10T05:40:40.145Z,6.85
2023-01-10T05:43:07.331Z,6.72
2023-01-10T05:45:34.532Z,10.98
2023-01-10T05:48:01.645Z,5.47
2023-01-10T05:50:28.852Z,6.47
2023-01-10T05:52:58.048Z,5.07
2023-01-10T05:55:27.267Z,6.38
2023-01-10T05:57:54.425Z,6.82
2023-01-10T06:00:24.234Z,6.45
2023-01-10T06:02:52.194Z,8.55
2023-01-10T06:05:19.342Z,8.30
2023-01-10T06:07:46.396Z,6.50
2023-01-10T06:10:13.577Z,6.32
2023-01-10T06:12:40.969Z,6.05
2023-01-10T06:15:08.940Z,5.93
2023-01-10T06:17:36.086Z,5.78
2023-01-10T06:20:03.314Z,6.70
2023-01-10T06:22:30.449Z,5.05
2023-01-10T06:24:57.524Z,6.07
2023-01-10T06:27:25.776Z,6.20
2023-01-10T06:29:52.869Z,5.47
2023-01-10T06:32:19.936Z,6.00
2023-01-10T06:34:47.073Z,5.50
2023-01-10T06:37:14.250Z,5.65
2023-01-10T06:39:41.350Z,5.38
2023-01-10T06:42:08.452Z,6.07
2023-01-10T06:44:35.755Z,5.18
2023-01-10T06:47:02.897Z,5.50
2023-01-10T06:49:30.434Z,6.00
2023-01-10T06:51:57.516Z,4.97
2023-01-10T06:54:24.655Z,5.95
2023-01-10T06:56:51.788Z,5.07
2023-01-10T06:59:18.953Z,5.43
2023-01-10T07:01:46.188Z,3.85
2023-01-10T07:04:13.423Z,4.13
2023-01-10T07:06:41.536Z,3.92
2023-01-10T07:09:09.340Z,4.10
2023-01-10T07:11:36.612Z,3.63
2023-01-10T07:14:03.887Z,4.10
2023-01-10T07:16:31.117Z,3.50
2023-01-10T07:18:59.085Z,3.10
2023-01-10T07:21:26.276Z,3.60
2023-01-10T07:23:53.365Z,3.40
2023-01-10T07:26:20.844Z,3.58
2023-01-10T07:28:51.137Z,2.92
2023-01-10T07:31:23.788Z,4.32
2023-01-10T07:33:53.882Z,3.13
2023-01-10T07:36:21.087Z,3.78
2023-01-10T07:38:48.143Z,4.53
2023-01-10T07:41:15.243Z,8.23
2023-01-10T07:43:42.338Z,5.13
2023-01-10T07:46:10.854Z,3.80
2023-01-10T07:48:38.311Z,3.05
2023-01-10T07:51:06.456Z,4.38
2023-01-10T07:53:33.559Z,4.07
2023-01-10T07:56:01.672Z,2.67
2023-01-10T07:58:28.959Z,3.00
2023-01-10T08:01:00.027Z,2.47
2023-01-10T08:03:27.589Z,3.22
2023-01-10T08:05:59.358Z,3.22
2023-01-10T08:08:26.494Z,3.40
2023-01-10T08:10:53.635Z,3.15
2023-01-10T08:13:20.804Z,3.08
2023-01-10T08:15:50.438Z,2.42
2023-01-10T08:18:18.012Z,3.00
2023-01-10T08:20:47.906Z,3.03
2023-01-10T08:23:15.053Z,2.45
2023-01-10T08:25:42.148Z,2.92
2023-01-10T08:28:09.661Z,2.90
2023-01-10T08:30:37.262Z,2.80
2023-01-10T08:33:05.504Z,2.80
2023-01-10T08:35:37.099Z,1.80
2023-01-10T08:38:04.501Z,2.92
2023-01-10T08:40:31.626Z,3.78
2023-01-10T08:42:59.656Z,2.10
2023-01-10T08:45:26.849Z,2.30
2023-01-10T08:47:54.458Z,2.05
2023-01-10T08:50:21.683Z,3.10
2023-01-10T08:52:48.917Z,3.10
2023-01-10T08:55:16.054Z,2.40
2023-01-10T08:57:43.174Z,3.05
2023-01-10T09:00:12.109Z,2.70
2023-01-10T09:02:42.672Z,3.35
2023-01-10T09:05:22.333Z,2.95
2023-01-10T09:07:54.189Z,2.90
2023-01-10T09:10:21.590Z,3.95
2023-01-10T09:12:54.753Z,3.60
2023-01-10T09:15:27.085Z,3.72
2023-01-10T09:17:55.483Z,3.65
2023-01-10T09:20:25.125Z,2.88
2023-01-10T09:22:52.682Z,3.70
2023-01-10T09:25:19.896Z,2.80
2023-01-10T09:27:47.020Z,2.70
2023-01-10T09:30:14.690Z,3.50
2023-01-10T09:32:41.921Z,2.75
2023-01-10T09:35:09.206Z,3.65
2023-01-10T09:37:37.941Z,4.07
2023-01-10T09:40:05.391Z,3.50
2023-01-10T09:42:35.618Z,3.60
2023-01-10T09:45:14.999Z,3.30
2023-01-10T09:47:48.540Z,2.58
2023-01-10T09:50:29.459Z,2.63
2023-01-10T09:53:14.368Z,3.65
2023-01-10T09:55:42.109Z,2.85
2023-01-10T09:58:13.434Z,2.63
2023-01-10T10:00:44.521Z,3.78
2023-01-10T10:03:30.674Z,2.40
2023-01-10T10:06:10.513Z,2.95
2023-01-10T10:08:38.876Z,3.40
2023-01-10T10:11:05.950Z,2.90
2023-01-10T10:13:42.073Z,3.30
2023-01-10T10:16:09.185Z,2.55
2023-01-10T10:18:45.813Z,4.10
2023-01-10T10:21:48.514Z,3.25
2023-01-10T10:24:28.952Z,4.40
2023-01-10T10:26:56.073Z,3.05
2023-01-10T10:29:26.483Z,3.08
2023-01-10T10:32:02.521Z,3.20
2023-01-10T10:34:50.246Z,3.83
2023-01-10T10:37:20.419Z,3.22
2023-01-10T10:39:51.142Z,3.28
2023-01-10T10:42:19.513Z,3.30
2023-01-10T10:44:55.137Z,2.80
2023-01-10T10:47:23.602Z,2.50
2023-01-10T10:50:00.340Z,2.35
2023-01-10T10:52:32.331Z,2.60
2023-01-10T10:54:59.669Z,2.63
2023-01-10T10:57:28.538Z,3.22
2023-01-10T10:59:56.597Z,3.88
2023-01-10T11:02:28.393Z,6.43
2023-01-10T11:04:58.417Z,19.42
2023-01-10T11:07:27.612Z,5.85
2023-01-10T11:10:15.178Z,13.63
2023-01-10T11:12:47.894Z,11.45
2023-01-10T11:15:33.823Z,2.92
2023-01-10T11:18:05.403Z,5.93
2023-01-10T11:20:32.665Z,7.30
2023-01-10T11:22:59.785Z,4.05
2023-01-10T11:25:26.982Z,4.85
2023-01-10T11:27:55.567Z,7.30
2023-01-10T11:30:27.295Z,3.60
2023-01-10T11:32:56.272Z,16.30
2023-01-10T11:35:26.905Z,11.57
2023-01-10T11:38:03.271Z,4.95
2023-01-10T11:40:31.199Z,1.75
2023-01-10T11:42:59.541Z,3.40
2023-01-10T11:45:28.890Z,2.97
2023-01-10T11:47:59.208Z,3.83
2023-01-10T11:50:27.928Z,2.00
2023-01-10T11:52:55.683Z,2.63
2023-01-10T11:55:27.480Z,2.25
2023-01-10T11:57:59.976Z,2.10
2023-01-10T12:00:45.797Z,2.35
2023-01-10T12:03:28.122Z,1.73
2023-01-10T12:06:09.505Z,2.25
2023-01-10T12:08:38.325Z,2.95
2023-01-10T12:11:07.399Z,2.08
2023-01-10T12:13:48.002Z,2.35
2023-01-10T12:16:25.873Z,2.22
2023-01-10T12:18:54.537Z,1.92
2023-01-10T12:21:31.325Z,2.42
2023-01-10T12:24:00.343Z,2.00
2023-01-10T12:26:30.466Z,2.60
2023-01-10T12:28:59.921Z,2.45
2023-01-10T12:31:28.515Z,3.42
2023-01-10T12:34:08.356Z,3.10
2023-01-10T12:36:40.173Z,3.33
2023-01-10T12:39:20.353Z,2.80
2023-01-10T12:42:11.823Z,2.47
2023-01-10T12:44:42.793Z,3.58
2023-01-10T12:47:25.118Z,3.33
2023-01-10T12:49:55.279Z,8.43
2023-01-10T12:52:29.400Z,7.25
2023-01-10T12:54:56.623Z,5.85
2023-01-10T12:57:31.169Z,3.13
2023-01-10T12:59:59.706Z,3.33
2023-01-10T13:02:28.581Z,4.22
2023-01-10T13:05:01.279Z,3.33
2023-01-10T13:09:56.042Z,3.55
2023-01-10T13:12:25.696Z,3.35
2023-01-10T13:14:52.799Z,2.47
2023-01-10T13:17:40.267Z,4.22
2023-01-10T13:20:22.623Z,3.65
2023-01-10T13:22:54.089Z,4.50
2023-01-10T13:25:22.896Z,3.85
2023-01-10T13:27:57.357Z,3.20
2023-01-10T13:30:29.561Z,3.42
2023-01-10T13:33:01.349Z,2.72
2023-01-10T13:35:29.424Z,3.10
2023-01-10T13:37:57.297Z,2.58
2023-01-10T13:40:30.281Z,3.15
2023-01-10T13:43:19.296Z,3.60
2023-01-10T13:45:46.499Z,2.92
2023-01-10T13:48:28.948Z,2.60
2023-01-10T13:51:06.748Z,2.80
2023-01-10T13:53:33.832Z,3.20
2023-01-10T13:56:00.999Z,2.80
2023-01-10T13:59:00.244Z,2.28
2023-01-10T14:01:47.754Z,2.30
2023-01-10T14:04:20.600Z,3.03
2023-01-10T14:06:52.280Z,2.53
2023-01-10T14:09:20.374Z,11.05
2023-01-10T14:11:52.836Z,5.18
2023-01-10T14:14:19.946Z,2.63
2023-01-10T14:16:49.282Z,2.65
2023-01-10T14:19:34.798Z,5.78
2023-01-10T14:22:02.899Z,6.40
2023-01-10T14:24:33.482Z,6.85
2023-01-10T14:27:02.263Z,9.30
2023-01-10T14:29:31.658Z,17.10
2023-01-10T14:31:59.564Z,8.65
2023-01-10T14:34:28.183Z,11.48
2023-01-10T14:37:00.347Z,6.00
2023-01-10T14:39:28.399Z,2.83
2023-01-10T14:41:58.763Z,3.70
2023-01-10T14:44:32.333Z,4.30
2023-01-10T14:47:04.475Z,2.85
2023-01-10T14:49:35.249Z,2.92
2023-01-10T14:52:31.543Z,3.13
2023-01-10T14:54:58.682Z,2.80
2023-01-10T14:57:25.795Z,3.88
2023-01-10T15:00:03.974Z,4.05
2023-01-10T15:02:31.616Z,2.67
2023-01-10T15:05:07.706Z,3.85
2023-01-10T15:07:34.853Z,7.63
2023-01-10T15:10:04.270Z,5.60
2023-01-10T15:12:33.738Z,3.35
2023-01-10T15:15:03.195Z,3.47
2023-01-10T15:17:30.491Z,3.20
2023-01-10T15:19:58.134Z,3.30
2023-01-10T15:22:32.876Z,2.90
2023-01-10T15:25:11.027Z,4.22
2023-01-10T15:27:43.672Z,3.10
2023-01-10T15:32:39.412Z,4.13
2023-01-10T15:35:08.859Z,5.18
2023-01-10T15:37:39.223Z,4.00
2023-01-10T15:40:07.460Z,5.20
2023-01-10T15:42:35.403Z,5.20
2023-01-10T15:45:23.139Z,5.50
2023-01-10T15:47:52.887Z,4.05
2023-01-10T15:50:20.167Z,4.70
2023-01-10T15:52:58.346Z,5.72
2023-01-10T15:55:36.814Z,11.10
2023-01-10T15:58:04.868Z,8.57
2023-01-10T16:00:32.221Z,7.95
2023-01-10T16:02:59.561Z,5.95
2023-01-10T16:05:27.976Z,10.48
2023-01-10T16:07:57.091Z,7.00
2023-01-10T16:10:27.771Z,22.48
2023-01-10T16:13:27.853Z,80.05
2023-01-10T16:15:58.989Z,21.90
2023-01-10T16:18:26.204Z,15.75
2023-01-10T16:20:55.614Z,72.72
2023-01-10T16:23:24.519Z,33.72
2023-01-10T16:25:56.763Z,42.80
2023-01-10T16:28:24.403Z,49.38
2023-01-10T16:30:51.767Z,42.00
2023-01-10T16:33:23.262Z,36.85
2023-01-10T16:35:51.688Z,18.58
2023-01-10T16:38:19.210Z,13.25
2023-01-10T16:40:55.129Z,12.75
2023-01-10T16:43:22.341Z,14.63
2023-01-10T16:45:51.159Z,46.70
2023-01-10T16:48:19.548Z,22.30
2023-01-10T16:50:47.705Z,20.30
2023-01-10T16:53:16.337Z,18.27
2023-01-10T16:55:45.225Z,20.13
2023-01-10T16:58:12.943Z,7.80
2023-01-10T17:00:41.271Z,7.07
2023-01-10T17:03:11.707Z,6.05
2023-01-10T17:05:39.146Z,12.35
2023-01-10T17:08:06.957Z,7.57
2023-01-10T17:10:36.420Z,3.70
2023-01-10T17:13:04.630Z,4.20
2023-01-10T17:15:31.768Z,3.67
2023-01-10T17:17:59.085Z,3.67
2023-01-10T17:20:26.238Z,3.15
2023-01-10T17:22:53.360Z,4.50
2023-01-10T17:25:20.593Z,4.75
2023-01-10T17:27:47.772Z,5.55
2023-01-10T17:30:15.575Z,4.80
2023-01-10T17:32:42.802Z,4.90
2023-01-10T17:35:10.355Z,4.38
2023-01-10T17:37:37.665Z,3.28
2023-01-10T17:40:05.905Z,3.63
2023-01-10T17:42:33.086Z,2.80
2023-01-10T17:45:00.174Z,3.13
2023-01-10T17:47:27.354Z,4.13
2023-01-10T17:49:54.668Z,2.83
2023-01-10T17:52:22.182Z,3.50
2023-01-10T17:54:49.630Z,3.72
2023-01-10T17:57:16.826Z,2.85
2023-01-10T17:59:43.995Z,4.05
2023-01-10T18:02:16.388Z,3.05
2023-01-10T18:04:43.807Z,3.08
2023-01-10T18:07:13.015Z,3.63
2023-01-10T18:09:40.369Z,6.82
2023-01-10T18:12:07.798Z,9.80
2023-01-10T18:14:37.851Z,6.97
2023-01-10T18:17:12.304Z,7.07
2023-01-10T18:19:39.513Z,4.25
2023-01-10T18:22:27.330Z,3.80
2023-01-10T18:24:55.023Z,2.95
2023-01-10T18:27:22.706Z,4.13
2023-01-10T18:29:50.549Z,3.00
2023-01-10T18:32:18.018Z,3.70
2023-01-10T18:34:47.071Z,3.25
2023-01-10T18:37:17.862Z,2.95
2023-01-10T18:39:45.010Z,3.13
2023-01-10T18:42:12.355Z,3.45
2023-01-10T18:44:39.958Z,3.50
2023-01-10T18:47:07.643Z,3.40
2023-01-10T18:49:35.016Z,3.88
2023-01-10T18:52:02.182Z,3.78
2023-01-10T18:54:29.304Z,7.15
2023-01-10T18:56:56.494Z,7.13
2023-01-10T18:59:23.762Z,6.43
2023-01-10T19:01:51.033Z,6.35
2023-01-10T19:04:18.652Z,5.07
2023-01-10T19:06:45.838Z,4.45
2023-01-10T19:09:13.023Z,3.10
2023-01-10T19:11:40.130Z,3.55
2023-01-10T19:14:07.316Z,3.20
2023-01-10T19:16:34.628Z,2.53
2023-01-10T19:19:06.363Z,2.80
2023-01-10T19:21:34.683Z,2.30
2023-01-10T19:24:02.780Z,5.47
2023-01-10T19:26:29.891Z,3.42
2023-01-10T19:28:57.308Z,5.40
2023-01-10T19:31:25.880Z,3.38
2023-01-10T19:33:53.308Z,6.43
2023-01-10T19:36:21.360Z,6.90
2023-01-10T19:38:48.435Z,3.88
2023-01-10T19:41:16.046Z,4.10
2023-01-10T19:43:43.312Z,3.42
2023-01-10T19:46:11.303Z,5.35
2023-01-10T19:48:38.654Z,1.95
2023-01-10T19:51:09.938Z,2.28
2023-01-10T19:53:37.933Z,3.80
2023-01-10T19:56:09.480Z,2.55
2023-01-10T19:58:37.365Z,2.28
2023-01-10T20:01:11.688Z,2.05
2023-01-10T20:03:42.089Z,2.20
2023-01-10T20:06:16.999Z,2.50
2023-01-10T20:08:44.664Z,2.35
2023-01-10T20:11:11.888Z,3.17
2023-01-10T20:13:44.462Z,2.40
2023-01-10T20:18:39.004Z,2.00
2023-01-10T20:21:10.354Z,2.33
2023-01-10T20:23:38.310Z,2.63
2023-01-10T20:26:13.037Z,2.40
2023-01-10T20:28:40.599Z,3.00
2023-01-10T20:31:08.785Z,3.60
2023-01-10T20:33:35.973Z,3.80
2023-01-10T20:36:04.351Z,4.05
2023-01-10T20:38:32.378Z,3.53
2023-01-10T20:41:00.618Z,4.40
2023-01-10T20:43:27.713Z,5.43
2023-01-10T20:45:54.896Z,4.38
2023-01-10T20:48:22.308Z,5.70
2023-01-10T20:50:49.960Z,4.70
2023-01-10T20:53:17.085Z,4.65
2023-01-10T20:55:46.944Z,4.65
2023-01-10T20:58:20.649Z,4.00
2023-01-10T21:00:47.797Z,3.15
2023-01-10T21:03:14.946Z,4.03
2023-01-10T21:05:42.097Z,4.03
2023-01-10T21:08:09.270Z,4.13
2023-01-10T21:10:36.486Z,3.15
2023-01-10T21:13:03.846Z,2.80
2023-01-10T21:15:30.939Z,3.35
2023-01-10T21:17:58.118Z,2.28
2023-01-10T21:20:27.700Z,2.30
2023-01-10T21:22:55.123Z,2.15
2023-01-10T21:25:22.366Z,2.28
2023-01-10T21:27:49.766Z,1.98
2023-01-10T21:30:18.895Z,1.38
2023-01-10T21:32:46.048Z,2.75
2023-01-10T21:35:13.256Z,2.88
2023-01-10T21:37:40.335Z,2.80
2023-01-10T21:40:07.707Z,2.80
2023-01-10T21:42:34.907Z,2.65
2023-01-10T21:45:02.695Z,3.45
2023-01-10T21:47:29.844Z,6.97
2023-01-10T21:49:57.013Z,2.72
2023-01-10T21:52:24.196Z,2.60
2023-01-10T21:54:51.275Z,2.88
2023-01-10T21:57:22.051Z,2.00
2023-01-10T21:59:49.704Z,2.70
2023-01-10T22:02:18.799Z,1.70
2023-01-10T22:04:46.446Z,2.55
2023-01-10T22:07:13.786Z,1.73
2023-01-10T22:09:40.953Z,2.38
2023-01-10T22:12:08.543Z,1.85
2023-01-10T22:14:36.079Z,2.03
2023-01-10T22:17:03.828Z,2.25
2023-01-10T22:19:30.988Z,2.10
2023-01-10T22:21:58.154Z,2.28
2023-01-10T22:24:25.311Z,2.35
2023-01-10T22:26:54.534Z,2.33
2023-01-10T22:29:21.730Z,2.50
2023-01-10T22:31:49.109Z,2.20
2023-01-10T22:34:16.693Z,1.90
2023-01-10T22:36:44.101Z,1.90
2023-01-10T22:39:11.538Z,1.92
2023-01-10T22:41:39.074Z,2.35
2023-01-10T22:44:06.488Z,2.35
2023-01-10T22:46:34.060Z,2.50
2023-01-10T22:49:01.474Z,2.88
2023-01-10T22:51:28.688Z,2.60
2023-01-10T22:53:56.702Z,2.60
2023-01-10T22:56:26.630Z,2.50
2023-01-10T22:58:53.876Z,2.67
2023-01-10T23:01:21.770Z,2.80
2023-01-10T23:03:49.150Z,1.98
2023-01-10T23:06:16.670Z,2.88
2023-01-10T23:08:43.829Z,2.00
2023-01-10T23:11:11.705Z,2.30
2023-01-10T23:13:38.813Z,2.10
2023-01-10T23:16:07.453Z,2.90
2023-01-10T23:18:34.702Z,2.67
2023-01-10T23:21:02.105Z,2.75
2023-01-10T23:23:29.318Z,2.45
2023-01-10T23:26:03.550Z,2.40
2023-01-10T23:28:30.635Z,2.00
2023-01-10T23:30:57.954Z,2.67
2023-01-10T23:33:25.078Z,2.30
2023-01-10T23:35:52.306Z,1.92
2023-01-10T23:38:19.411Z,2.15
2023-01-10T23:40:46.520Z,2.00
2023-01-10T23:43:14.069Z,2.55
2023-01-10T23:45:43.270Z,2.53
2023-01-10T23:48:10.809Z,2.45
2023-01-10T23:50:38.353Z,2.55
2023-01-10T23:53:05.820Z,2.40
2023-01-10T23:55:33.545Z,2.88
2023-01-10T23:58:00.971Z,1.90
